Wetterdaten: Sonntag, 10.08.2014
Datum Zeit Temperatur Luftfeuchte Luftdruck Regen Wind Richtung Richtung Sonnenschein ET UV Solar Taupunkt Windchill Windben
10.08.2014 00:00 13,7 C 89 % 1013,2 hPa 0,0 l/m 0,0 km/h (0 Bft) O 90 0 min 0,000 mm 0,0 UV-I 0 W/m 11,9 C 13,7 C 1,6 km/h (1 Bft)
10.08.2014 00:05 13,6 C 89 % 1013,0 hPa 0,0 l/m 0,0 km/h (0 Bft) O 90 0 min 0,000 mm 0,0 UV-I 0 W/m 11,8 C 13,6 C 0,0 km/h (0 Bft)
10.08.2014 00:10 13,6 C 90 % 1013,1 hPa 0,0 l/m 0,0 km/h (0 Bft) O 90 0 min 0,000 mm 0,0 UV-I 0 W/m 12,0 C 13,6 C 0,0 km/h (0 Bft)
10.08.2014 00:15 13,6 C 90 % 1013,0 hPa 0,0 l/m 0,0 km/h (0 Bft) O 90 0 min 0,000 mm 0,0 UV-I 0 W/m 12,0 C 13,6 C 0,0 km/h (0 Bft)
10.08.2014 00:20 13,5 C 90 % 1013,0 hPa 0,0 l/m 0,0 km/h (0 Bft) O 90 0 min 0,000 mm 0,0 UV-I 0 W/m 11,9 C 13,5 C 0,0 km/h (0 Bft)
10.08.2014 00:25 13,4 C 90 % 1013,0 hPa 0,0 l/m 0,0 km/h (0 Bft) O 90 0 min 0,000 mm 0,0 UV-I 0 W/m 11,8 C 13,4 C 0,0 km/h (0 Bft)
10.08.2014 00:30 13,4 C 90 % 1012,9 hPa 0,0 l/m 0,0 km/h (0 Bft) O 90 0 min 0,000 mm 0,0 UV-I 0 W/m 11,8 C 13,4 C 0,0 km/h (0 Bft)
10.08.2014 00:35 13,4 C 90 % 1012,9 hPa 0,0 l/m 0,0 km/h (0 Bft) O 90 0 min 0,000 mm 0,0 UV-I 0 W/m 11,8 C 13,4 C 0,0 km/h (0 Bft)
10.08.2014 00:40 13,4 C 90 % 1013,0 hPa 0,0 l/m 0,0 km/h (0 Bft) O 90 0 min 0,000 mm 0,0 UV-I 0 W/m 11,8 C 13,4 C 0,0 km/h (0 Bft)
10.08.2014 00:45 13,3 C 90 % 1012,9 hPa 0,0 l/m 0,0 km/h (0 Bft) O 90 0 min 0,000 mm 0,0 UV-I 0 W/m 11,7 C 13,3 C 0,0 km/h (0 Bft)
10.08.2014 00:50 13,3 C 90 % 1012,9 hPa 0,0 l/m 0,0 km/h (0 Bft) O 90 0 min 0,000 mm 0,0 UV-I 0 W/m 11,7 C 13,3 C 0,0 km/h (0 Bft)
10.08.2014 00:55 13,3 C 90 % 1012,9 hPa 0,0 l/m 0,0 km/h (0 Bft) O 90 0 min 0,000 mm 0,0 UV-I 0 W/m 11,7 C 13,3 C 0,0 km/h (0 Bft)
10.08.2014 01:00 13,3 C 90 % 1012,8 hPa 0,0 l/m 0,0 km/h (0 Bft) O 90 0 min 0,000 mm 0,0 UV-I 0 W/m 11,7 C 13,3 C 0,0 km/h (0 Bft)
10.08.2014 01:05 13,3 C 90 % 1012,7 hPa 0,0 l/m 0,0 km/h (0 Bft) O 90 0 min 0,000 mm 0,0 UV-I 0 W/m 11,7 C 13,3 C 0,0 km/h (0 Bft)
10.08.2014 01:10 13,2 C 90 % 1012,6 hPa 0,0 l/m 0,0 km/h (0 Bft) O 90 0 min 0,000 mm 0,0 UV-I 0 W/m 11,6 C 13,2 C 0,0 km/h (0 Bft)
10.08.2014 01:15 13,2 C 90 % 1012,5 hPa 0,0 l/m 0,0 km/h (0 Bft) O 90 0 min 0,000 mm 0,0 UV-I 0 W/m 11,6 C 13,2 C 0,0 km/h (0 Bft)
10.08.2014 01:20 13,2 C 90 % 1012,5 hPa 0,0 l/m 0,0 km/h (0 Bft) O 90 0 min 0,000 mm 0,0 UV-I 0 W/m 11,6 C 13,2 C 0,0 km/h (0 Bft)
10.08.2014 01:25 13,1 C 90 % 1012,5 hPa 0,0 l/m 0,0 km/h (0 Bft) O 90 0 min 0,000 mm 0,0 UV-I 0 W/m 11,5 C 13,1 C 0,0 km/h (0 Bft)
10.08.2014 01:30 13,1 C 90 % 1012,5 hPa 0,0 l/m 0,0 km/h (0 Bft) O 90 0 min 0,000 mm 0,0 UV-I 0 W/m 11,5 C 13,1 C 0,0 km/h (0 Bft)
10.08.2014 01:35 13,1 C 91 % 1012,5 hPa 0,0 l/m 0,0 km/h (0 Bft) O 90 0 min 0,000 mm 0,0 UV-I 0 W/m 11,7 C 13,1 C 0,0 km/h (0 Bft)
10.08.2014 01:40 13,1 C 91 % 1012,4 hPa 0,0 l/m 0,0 km/h (0 Bft) O 90 0 min 0,000 mm 0,0 UV-I 0 W/m 11,7 C 13,1 C 0,0 km/h (0 Bft)
10.08.2014 01:45 13,1 C 91 % 1012,3 hPa 0,0 l/m 0,0 km/h (0 Bft) O 90 0 min 0,000 mm 0,0 UV-I 0 W/m 11,7 C 13,1 C 0,0 km/h (0 Bft)
10.08.2014 01:50 13,1 C 91 % 1012,2 hPa 0,0 l/m 0,0 km/h (0 Bft) O 90 0 min 0,000 mm 0,0 UV-I 0 W/m 11,7 C 13,1 C 0,0 km/h (0 Bft)
10.08.2014 01:55 13,0 C 91 % 1012,2 hPa 0,0 l/m 0,0 km/h (0 Bft) O 90 0 min 0,000 mm 0,0 UV-I 0 W/m 11,6 C 13,0 C 1,6 km/h (1 Bft)
10.08.2014 02:00 12,9 C 91 % 1012,1 hPa 0,0 l/m 0,0 km/h (0 Bft) O 90 0 min 0,000 mm 0,0 UV-I 0 W/m 11,5 C 12,9 C 1,6 km/h (1 Bft)
10.08.2014 02:05 12,9 C 91 % 1012,1 hPa 0,0 l/m 0,0 km/h (0 Bft) O 90 0 min 0,000 mm 0,0 UV-I 0 W/m 11,5 C 12,9 C 0,0 km/h (0 Bft)
10.08.2014 02:10 12,9 C 91 % 1011,9 hPa 0,0 l/m 0,0 km/h (0 Bft) O 90 0 min 0,000 mm 0,0 UV-I 0 W/m 11,5 C 12,9 C 0,0 km/h (0 Bft)
10.08.2014 02:15 12,9 C 91 % 1011,9 hPa 0,0 l/m 0,0 km/h (0 Bft) O 90 0 min 0,000 mm 0,0 UV-I 0 W/m 11,5 C 12,9 C 0,0 km/h (0 Bft)
10.08.2014 02:20 13,0 C 92 % 1011,9 hPa 0,0 l/m 0,0 km/h (0 Bft) O 90 0 min 0,000 mm 0,0 UV-I 0 W/m 11,7 C 13,0 C 0,0 km/h (0 Bft)
10.08.2014 02:25 13,1 C 92 % 1011,9 hPa 0,0 l/m 0,0 km/h (0 Bft) O 90 0 min 0,000 mm 0,0 UV-I 0 W/m 11,8 C 13,1 C 0,0 km/h (0 Bft)
10.08.2014 02:30 13,1 C 92 % 1012,0 hPa 0,0 l/m 0,0 km/h (0 Bft) O 90 0 min 0,000 mm 0,0 UV-I 0 W/m 11,8 C 13,1 C 0,0 km/h (0 Bft)
10.08.2014 02:35 13,1 C 92 % 1012,0 hPa 0,0 l/m 0,2 km/h (0 Bft) S-SW 198 0 min 0,000 mm 0,0 UV-I 0 W/m 11,8 C 13,1 C 1,6 km/h (1 Bft)
10.08.2014 02:40 13,1 C 92 % 1012,0 hPa 0,0 l/m 1,0 km/h (0 Bft) SW 236 0 min 0,000 mm 0,0 UV-I 0 W/m 11,8 C 13,1 C 3,2 km/h (1 Bft)
10.08.2014 02:45 13,0 C 92 % 1012,0 hPa 0,0 l/m 0,4 km/h (0 Bft) W-SW 238 0 min 0,000 mm 0,0 UV-I 0 W/m 11,7 C 13,0 C 3,2 km/h (1 Bft)
10.08.2014 02:50 13,1 C 93 % 1012,1 hPa 0,0 l/m 0,2 km/h (0 Bft) W 261 0 min 0,000 mm 0,0 UV-I 0 W/m 12,0 C 13,1 C 1,6 km/h (1 Bft)
10.08.2014 02:55 13,1 C 93 % 1012,0 hPa 0,0 l/m 0,0 km/h (0 Bft) W 261 0 min 0,000 mm 0,0 UV-I 0 W/m 12,0 C 13,1 C 1,6 km/h (1 Bft)
10.08.2014 03:00 13,1 C 93 % 1012,0 hPa 0,0 l/m 0,0 km/h (0 Bft) W 261 0 min 0,000 mm 0,0 UV-I 0 W/m 12,0 C 13,1 C 0,0 km/h (0 Bft)
10.08.2014 03:05 13,1 C 93 % 1012,0 hPa 0,0 l/m 0,0 km/h (0 Bft) W 261 0 min 0,000 mm 0,0 UV-I 0 W/m 12,0 C 13,1 C 0,0 km/h (0 Bft)
10.08.2014 03:10 13,1 C 93 % 1012,1 hPa 0,0 l/m 0,0 km/h (0 Bft) W 261 0 min 0,000 mm 0,0 UV-I 0 W/m 12,0 C 13,1 C 0,0 km/h (0 Bft)
10.08.2014 03:15 13,2 C 93 % 1012,0 hPa 0,0 l/m 0,0 km/h (0 Bft) W 261 0 min 0,000 mm 0,0 UV-I 0 W/m 12,1 C 13,2 C 0,0 km/h (0 Bft)
10.08.2014 03:20 13,2 C 93 % 1011,9 hPa 0,0 l/m 0,0 km/h (0 Bft) W 261 0 min 0,000 mm 0,0 UV-I 0 W/m 12,1 C 13,2 C 0,0 km/h (0 Bft)
10.08.2014 03:25 13,2 C 93 % 1011,8 hPa 0,0 l/m 0,0 km/h (0 Bft) W 261 0 min 0,000 mm 0,0 UV-I 0 W/m 12,1 C 13,2 C 0,0 km/h (0 Bft)
10.08.2014 03:30 13,2 C 93 % 1011,8 hPa 0,0 l/m 0,0 km/h (0 Bft) W 261 0 min 0,000 mm 0,0 UV-I 0 W/m 12,1 C 13,2 C 0,0 km/h (0 Bft)
10.08.2014 03:35 13,2 C 93 % 1011,6 hPa 0,0 l/m 0,0 km/h (0 Bft) W 261 0 min 0,000 mm 0,0 UV-I 0 W/m 12,1 C 13,2 C 0,0 km/h (0 Bft)
10.08.2014 03:40 13,2 C 93 % 1011,6 hPa 0,0 l/m 0,0 km/h (0 Bft) W 260 0 min 0,000 mm 0,0 UV-I 0 W/m 12,1 C 13,2 C 1,6 km/h (1 Bft)
10.08.2014 03:45 13,2 C 93 % 1011,4 hPa 0,0 l/m 0,0 km/h (0 Bft) W 260 0 min 0,000 mm 0,0 UV-I 0 W/m 12,1 C 13,2 C 0,0 km/h (0 Bft)
10.08.2014 03:50 13,2 C 93 % 1011,4 hPa 0,0 l/m 0,0 km/h (0 Bft) W 260 0 min 0,000 mm 0,0 UV-I 0 W/m 12,1 C 13,2 C 0,0 km/h (0 Bft)
10.08.2014 03:55 13,2 C 93 % 1011,4 hPa 0,0 l/m 0,0 km/h (0 Bft) W 260 0 min 0,000 mm 0,0 UV-I 0 W/m 12,1 C 13,2 C 1,6 km/h (1 Bft)
10.08.2014 04:00 13,3 C 93 % 1011,4 hPa 0,0 l/m 0,6 km/h (0 Bft) O-NO 65 0 min 0,000 mm 0,0 UV-I 0 W/m 12,2 C 13,3 C 3,2 km/h (1 Bft)
10.08.2014 04:05 13,3 C 93 % 1011,4 hPa 0,0 l/m 0,3 km/h (0 Bft) O-NO 65 0 min 0,000 mm 0,0 UV-I 0 W/m 12,2 C 13,3 C 1,6 km/h (1 Bft)
10.08.2014 04:10 13,3 C 93 % 1011,3 hPa 0,2 l/m 0,4 km/h (0 Bft) N-NO 26 0 min 0,000 mm 0,0 UV-I 0 W/m 12,2 C 13,3 C 3,2 km/h (1 Bft)
10.08.2014 04:15 13,4 C 93 % 1011,2 hPa 0,0 l/m 0,4 km/h (0 Bft) NO 34 0 min 0,000 mm 0,0 UV-I 0 W/m 12,3 C 13,4 C 3,2 km/h (1 Bft)
10.08.2014 04:20 13,6 C 93 % 1011,1 hPa 0,0 l/m 0,1 km/h (0 Bft) NO 34 0 min 0,000 mm 0,0 UV-I 0 W/m 12,5 C 13,6 C 1,6 km/h (1 Bft)
10.08.2014 04:25 13,7 C 93 % 1011,0 hPa 0,0 l/m 0,0 km/h (0 Bft) NO 34 0 min 0,000 mm 0,0 UV-I 0 W/m 12,6 C 13,7 C 0,0 km/h (0 Bft)
10.08.2014 04:30 13,7 C 93 % 1011,1 hPa 0,0 l/m 0,0 km/h (0 Bft) NO 34 0 min 0,000 mm 0,0 UV-I 0 W/m 12,6 C 13,7 C 0,0 km/h (0 Bft)
10.08.2014 04:35 13,7 C 93 % 1011,2 hPa 0,0 l/m 0,0 km/h (0 Bft) O-NO 67 0 min 0,000 mm 0,0 UV-I 0 W/m 12,6 C 13,7 C 1,6 km/h (1 Bft)
10.08.2014 04:40 13,7 C 93 % 1011,4 hPa 0,0 l/m 0,0 km/h (0 Bft) O-NO 67 0 min 0,000 mm 0,0 UV-I 0 W/m 12,6 C 13,7 C 0,0 km/h (0 Bft)
10.08.2014 04:45 13,7 C 93 % 1011,4 hPa 0,0 l/m 0,0 km/h (0 Bft) O-NO 67 0 min 0,000 mm 0,0 UV-I 0 W/m 12,6 C 13,7 C 0,0 km/h (0 Bft)
10.08.2014 04:50 13,8 C 93 % 1011,2 hPa 0,0 l/m 0,0 km/h (0 Bft) O-NO 67 0 min 0,000 mm 0,0 UV-I 0 W/m 12,7 C 13,8 C 1,6 km/h (1 Bft)
10.08.2014 04:55 13,8 C 93 % 1011,1 hPa 0,0 l/m 0,2 km/h (0 Bft) NO 45 0 min 0,000 mm 0,0 UV-I 0 W/m 12,7 C 13,8 C 3,2 km/h (1 Bft)
10.08.2014 05:00 13,8 C 93 % 1010,9 hPa 0,0 l/m 0,0 km/h (0 Bft) NO 45 0 min 0,000 mm 0,0 UV-I 0 W/m 12,7 C 13,8 C 1,6 km/h (1 Bft)
10.08.2014 05:05 13,8 C 93 % 1010,8 hPa 0,0 l/m 0,0 km/h (0 Bft) NO 45 0 min 0,000 mm 0,0 UV-I 0 W/m 12,7 C 13,8 C 0,0 km/h (0 Bft)
10.08.2014 05:10 13,8 C 93 % 1010,6 hPa 0,0 l/m 0,0 km/h (0 Bft) NO 45 0 min 0,000 mm 0,0 UV-I 0 W/m 12,7 C 13,8 C 0,0 km/h (0 Bft)
10.08.2014 05:15 13,8 C 93 % 1010,7 hPa 0,0 l/m 0,0 km/h (0 Bft) NO 45 0 min 0,000 mm 0,0 UV-I 0 W/m 12,7 C 13,8 C 0,0 km/h (0 Bft)
10.08.2014 05:20 13,8 C 93 % 1010,6 hPa 0,0 l/m 0,0 km/h (0 Bft) NO 45 0 min 0,000 mm 0,0 UV-I 0 W/m 12,7 C 13,8 C 0,0 km/h (0 Bft)
10.08.2014 05:25 13,8 C 93 % 1010,7 hPa 0,0 l/m 0,0 km/h (0 Bft) NO 45 0 min 0,000 mm 0,0 UV-I 0 W/m 12,7 C 13,8 C 0,0 km/h (0 Bft)
10.08.2014 05:30 13,9 C 93 % 1010,7 hPa 0,0 l/m 0,0 km/h (0 Bft) NO 45 0 min 0,000 mm 0,0 UV-I 0 W/m 12,8 C 13,9 C 1,6 km/h (1 Bft)
10.08.2014 05:35 13,9 C 93 % 1010,6 hPa 0,0 l/m 0,0 km/h (0 Bft) NO 45 0 min 0,000 mm 0,0 UV-I 0 W/m 12,8 C 13,9 C 0,0 km/h (0 Bft)
10.08.2014 05:40 13,8 C 93 % 1010,8 hPa 0,0 l/m 0,0 km/h (0 Bft) NO 45 0 min 0,000 mm 0,0 UV-I 0 W/m 12,7 C 13,8 C 0,0 km/h (0 Bft)
10.08.2014 05:45 13,9 C 93 % 1010,6 hPa 0,0 l/m 0,0 km/h (0 Bft) NO 45 0 min 0,000 mm 0,0 UV-I 0 W/m 12,8 C 13,9 C 1,6 km/h (1 Bft)
10.08.2014 05:50 13,9 C 93 % 1010,6 hPa 0,0 l/m 0,0 km/h (0 Bft) NO 45 0 min 0,000 mm 0,0 UV-I 0 W/m 12,8 C 13,9 C 1,6 km/h (1 Bft)
10.08.2014 05:55 13,9 C 94 % 1010,5 hPa 0,0 l/m 0,0 km/h (0 Bft) NO 45 0 min 0,000 mm 0,0 UV-I 0 W/m 12,9 C 13,9 C 0,0 km/h (0 Bft)
10.08.2014 06:00 14,0 C 94 % 1010,6 hPa 0,0 l/m 0,2 km/h (0 Bft) NO 45 0 min 0,000 mm 0,0 UV-I 0 W/m 13,0 C 14,0 C 3,2 km/h (1 Bft)
10.08.2014 06:05 14,1 C 94 % 1010,7 hPa 0,0 l/m 0,0 km/h (0 Bft) NO 45 0 min 0,000 mm 0,0 UV-I 0 W/m 13,1 C 14,1 C 0,0 km/h (0 Bft)
10.08.2014 06:10 14,1 C 94 % 1010,7 hPa 0,0 l/m 0,0 km/h (0 Bft) NO 45 0 min 0,000 mm 0,0 UV-I 0 W/m 13,1 C 14,1 C 0,0 km/h (0 Bft)
10.08.2014 06:15 14,1 C 94 % 1010,7 hPa 0,0 l/m 0,0 km/h (0 Bft) NO 45 0 min 0,000 mm 0,0 UV-I 0 W/m 13,1 C 14,1 C 0,0 km/h (0 Bft)
10.08.2014 06:20 14,1 C 94 % 1010,7 hPa 0,0 l/m 0,0 km/h (0 Bft) NO 45 0 min 0,000 mm 0,0 UV-I 0 W/m 13,1 C 14,1 C 0,0 km/h (0 Bft)
10.08.2014 06:25 14,2 C 94 % 1010,7 hPa 0,0 l/m 0,0 km/h (0 Bft) NO 45 0 min 0,000 mm 0,0 UV-I 0 W/m 13,2 C 14,2 C 0,0 km/h (0 Bft)
10.08.2014 06:30 14,2 C 94 % 1010,5 hPa 0,0 l/m 0,0 km/h (0 Bft) NO 45 0 min 0,000 mm 0,0 UV-I 5 W/m 13,2 C 14,2 C 1,6 km/h (1 Bft)
10.08.2014 06:35 14,1 C 94 % 1010,4 hPa 0,0 l/m 0,0 km/h (0 Bft) NO 45 0 min 0,000 mm 0,0 UV-I 7 W/m 13,1 C 14,1 C 0,0 km/h (0 Bft)
10.08.2014 06:40 14,1 C 94 % 1010,3 hPa 0,0 l/m 0,0 km/h (0 Bft) NO 45 0 min 0,000 mm 0,0 UV-I 10 W/m 13,1 C 14,1 C 0,0 km/h (0 Bft)
10.08.2014 06:45 14,2 C 94 % 1010,1 hPa 0,0 l/m 0,0 km/h (0 Bft) NO 45 0 min 0,000 mm 0,0 UV-I 12 W/m 13,2 C 14,2 C 1,6 km/h (1 Bft)
10.08.2014 06:50 14,2 C 94 % 1010,2 hPa 0,0 l/m 0,0 km/h (0 Bft) NO 45 0 min 0,000 mm 0,0 UV-I 14 W/m 13,2 C 14,2 C 1,6 km/h (1 Bft)
10.08.2014 06:55 14,2 C 94 % 1010,2 hPa 0,0 l/m 0,0 km/h (0 Bft) NO 45 0 min 0,000 mm 0,0 UV-I 16 W/m 13,2 C 14,2 C 1,6 km/h (1 Bft)
10.08.2014 07:00 14,1 C 94 % 1010,2 hPa 0,0 l/m 0,0 km/h (0 Bft) NO 45 0 min 0,000 mm 0,0 UV-I 17 W/m 13,1 C 14,1 C 0,0 km/h (0 Bft)
10.08.2014 07:05 14,1 C 94 % 1010,3 hPa 0,0 l/m 0,0 km/h (0 Bft) NO 45 0 min 0,000 mm 0,0 UV-I 16 W/m 13,1 C 14,1 C 0,0 km/h (0 Bft)
10.08.2014 07:10 14,1 C 94 % 1010,3 hPa 0,0 l/m 0,0 km/h (0 Bft) NO 45 0 min 0,000 mm 0,0 UV-I 17 W/m 13,1 C 14,1 C 0,0 km/h (0 Bft)
10.08.2014 07:15 14,2 C 94 % 1010,3 hPa 0,0 l/m 0,0 km/h (0 Bft) NO 45 0 min 0,000 mm 0,0 UV-I 17 W/m 13,2 C 14,2 C 0,0 km/h (0 Bft)
10.08.2014 07:20 14,2 C 94 % 1010,2 hPa 0,0 l/m 0,0 km/h (0 Bft) NO 45 0 min 0,000 mm 0,0 UV-I 18 W/m 13,2 C 14,2 C 0,0 km/h (0 Bft)
10.08.2014 07:25 14,2 C 94 % 1010,2 hPa 0,0 l/m 0,0 km/h (0 Bft) NO 45 0 min 0,000 mm 0,0 UV-I 22 W/m 13,2 C 14,2 C 0,0 km/h (0 Bft)
10.08.2014 07:30 14,3 C 94 % 1010,2 hPa 0,0 l/m 0,0 km/h (0 Bft) NO 45 0 min 0,000 mm 0,0 UV-I 29 W/m 13,3 C 14,3 C 0,0 km/h (0 Bft)
10.08.2014 07:35 14,3 C 94 % 1010,3 hPa 0,0 l/m 0,0 km/h (0 Bft) NO 45 0 min 0,000 mm 0,0 UV-I 32 W/m 13,3 C 14,3 C 1,6 km/h (1 Bft)
10.08.2014 07:40 14,4 C 94 % 1010,1 hPa 0,0 l/m 0,0 km/h (0 Bft) NO 45 0 min 0,000 mm 0,0 UV-I 34 W/m 13,4 C 14,4 C 0,0 km/h (0 Bft)
10.08.2014 07:45 14,4 C 94 % 1010,0 hPa 0,0 l/m 0,0 km/h (0 Bft) NO 45 0 min 0,000 mm 0,0 UV-I 48 W/m 13,4 C 14,4 C 0,0 km/h (0 Bft)
10.08.2014 07:50 14,6 C 95 % 1010,1 hPa 0,0 l/m 0,0 km/h (0 Bft) NO 45 0 min 0,000 mm 0,0 UV-I 103 W/m 13,8 C 14,6 C 0,0 km/h (0 Bft)
10.08.2014 07:55 14,8 C 94 % 1010,0 hPa 0,0 l/m 0,0 km/h (0 Bft) NO 45 0 min 0,000 mm 0,0 UV-I 116 W/m 13,8 C 14,8 C 0,0 km/h (0 Bft)
10.08.2014 08:00 15,1 C 95 % 1010,0 hPa 0,0 l/m 0,0 km/h (0 Bft) NO 45 5 min 0,025 mm 0,0 UV-I 157 W/m 14,3 C 15,1 C 0,0 km/h (0 Bft)
10.08.2014 08:05 15,6 C 95 % 1010,0 hPa 0,0 l/m 0,0 km/h (0 Bft) NO 45 5 min 0,000 mm 0,5 UV-I 166 W/m 14,8 C 15,6 C 1,6 km/h (1 Bft)
10.08.2014 08:10 15,9 C 94 % 1010,0 hPa 0,0 l/m 0,0 km/h (0 Bft) NO 45 0 min 0,000 mm 0,5 UV-I 164 W/m 14,9 C 15,9 C 0,0 km/h (0 Bft)
10.08.2014 08:15 16,3 C 93 % 1010,0 hPa 0,0 l/m 0,4 km/h (0 Bft) NO 45 0 min 0,000 mm 0,5 UV-I 174 W/m 15,2 C 16,3 C 3,2 km/h (1 Bft)
10.08.2014 08:20 16,5 C 92 % 1009,9 hPa 0,0 l/m 0,1 km/h (0 Bft) NO 45 5 min 0,000 mm 0,6 UV-I 187 W/m 15,2 C 16,5 C 1,6 km/h (1 Bft)
10.08.2014 08:25 16,8 C 90 % 1009,9 hPa 0,0 l/m 0,1 km/h (0 Bft) NO 45 0 min 0,000 mm 0,6 UV-I 184 W/m 15,1 C 16,8 C 1,6 km/h (1 Bft)
10.08.2014 08:30 17,1 C 88 % 1009,8 hPa 0,0 l/m 1,7 km/h (1 Bft) NO 53 5 min 0,000 mm 0,7 UV-I 247 W/m 15,1 C 17,1 C 4,8 km/h (1 Bft)
10.08.2014 08:35 17,5 C 87 % 1009,8 hPa 0,0 l/m 1,3 km/h (1 Bft) O-NO 67 5 min 0,000 mm 0,7 UV-I 287 W/m 15,3 C 17,5 C 6,4 km/h (2 Bft)
10.08.2014 08:40 17,8 C 86 % 1009,7 hPa 0,0 l/m 3,5 km/h (1 Bft) NO 55 5 min 0,000 mm 0,8 UV-I 291 W/m 15,4 C 17,8 C 8,0 km/h (2 Bft)
10.08.2014 08:45 17,9 C 83 % 1009,7 hPa 0,0 l/m 2,9 km/h (1 Bft) O 86 5 min 0,000 mm 0,8 UV-I 314 W/m 15,0 C 17,9 C 8,0 km/h (2 Bft)
10.08.2014 08:50 17,9 C 83 % 1009,7 hPa 0,0 l/m 5,0 km/h (1 Bft) O-NO 61 5 min 0,000 mm 0,9 UV-I 338 W/m 15,0 C 17,9 C 11,3 km/h (2 Bft)
10.08.2014 08:55 18,1 C 83 % 1009,7 hPa 0,0 l/m 4,3 km/h (1 Bft) O-SO 112 5 min 0,000 mm 1,0 UV-I 362 W/m 15,2 C 18,1 C 9,7 km/h (2 Bft)
10.08.2014 09:00 18,1 C 83 % 1009,5 hPa 0,0 l/m 4,2 km/h (1 Bft) O 92 5 min 0,153 mm 1,0 UV-I 328 W/m 15,2 C 18,1 C 8,0 km/h (2 Bft)
10.08.2014 09:05 18,2 C 83 % 1009,3 hPa 0,0 l/m 2,4 km/h (1 Bft) O-NO 71 5 min 0,000 mm 0,9 UV-I 247 W/m 15,3 C 18,2 C 9,7 km/h (2 Bft)
10.08.2014 09:10 18,4 C 83 % 1009,3 hPa 0,0 l/m 4,7 km/h (1 Bft) NO 54 0 min 0,000 mm 0,9 UV-I 225 W/m 15,5 C 18,4 C 11,3 km/h (2 Bft)
10.08.2014 09:15 18,6 C 81 % 1009,5 hPa 0,0 l/m 2,5 km/h (1 Bft) NO 52 0 min 0,000 mm 1,0 UV-I 212 W/m 15,3 C 18,6 C 8,0 km/h (2 Bft)
10.08.2014 09:20 18,7 C 81 % 1009,3 hPa 0,0 l/m 5,4 km/h (1 Bft) NO 42 0 min 0,000 mm 1,1 UV-I 245 W/m 15,4 C 18,7 C 11,3 km/h (2 Bft)
10.08.2014 09:25 18,7 C 82 % 1009,3 hPa 0,0 l/m 3,3 km/h (1 Bft) O 89 5 min 0,000 mm 1,3 UV-I 342 W/m 15,6 C 18,7 C 8,0 km/h (2 Bft)
10.08.2014 09:30 18,9 C 81 % 1009,2 hPa 0,0 l/m 5,5 km/h (1 Bft) O-NO 65 5 min 0,000 mm 1,3 UV-I 347 W/m 15,6 C 18,9 C 11,3 km/h (2 Bft)
10.08.2014 09:35 19,2 C 81 % 1009,1 hPa 0,0 l/m 3,6 km/h (1 Bft) O-NO 61 5 min 0,000 mm 1,5 UV-I 342 W/m 15,9 C 19,2 C 11,3 km/h (2 Bft)
10.08.2014 09:40 19,8 C 80 % 1009,0 hPa 0,0 l/m 1,4 km/h (1 Bft) O-NO 74 5 min 0,000 mm 1,7 UV-I 433 W/m 16,2 C 19,8 C 6,4 km/h (2 Bft)
10.08.2014 09:45 20,2 C 78 % 1009,0 hPa 0,0 l/m 2,7 km/h (1 Bft) NO 36 5 min 0,000 mm 1,9 UV-I 453 W/m 16,2 C 20,2 C 8,0 km/h (2 Bft)
10.08.2014 09:50 19,9 C 80 % 1009,0 hPa 0,0 l/m 4,7 km/h (1 Bft) O-SO 103 5 min 0,000 mm 2,0 UV-I 468 W/m 16,3 C 19,9 C 11,3 km/h (2 Bft)
10.08.2014 09:55 20,6 C 78 % 1009,0 hPa 0,0 l/m 3,7 km/h (1 Bft) O-NO 64 5 min 0,000 mm 2,2 UV-I 547 W/m 16,6 C 20,6 C 8,0 km/h (2 Bft)
10.08.2014 10:00 21,6 C 76 % 1008,9 hPa 0,0 l/m 6,4 km/h (2 Bft) O 90 5 min 0,000 mm 2,2 UV-I 562 W/m 17,2 C 21,6 C 12,9 km/h (3 Bft)
10.08.2014 10:05 21,4 C 75 % 1008,8 hPa 0,0 l/m 6,1 km/h (2 Bft) NO 39 5 min 0,228 mm 2,1 UV-I 567 W/m 16,8 C 21,4 C 12,9 km/h (3 Bft)
10.08.2014 10:10 21,6 C 73 % 1008,9 hPa 0,0 l/m 3,4 km/h (1 Bft) O-NO 61 0 min 0,000 mm 1,6 UV-I 224 W/m 16,5 C 21,6 C 12,9 km/h (3 Bft)
10.08.2014 10:15 20,9 C 75 % 1008,7 hPa 0,0 l/m 3,6 km/h (1 Bft) O 101 0 min 0,000 mm 1,8 UV-I 220 W/m 16,3 C 20,9 C 11,3 km/h (2 Bft)
10.08.2014 10:20 20,0 C 77 % 1008,8 hPa 0,0 l/m 6,7 km/h (2 Bft) O 98 5 min 0,000 mm 2,1 UV-I 400 W/m 15,8 C 19,9 C 12,9 km/h (3 Bft)
10.08.2014 10:25 20,6 C 78 % 1008,6 hPa 0,0 l/m 4,9 km/h (1 Bft) O-NO 68 0 min 0,000 mm 2,8 UV-I 335 W/m 16,6 C 20,6 C 11,3 km/h (2 Bft)
10.08.2014 10:30 21,2 C 73 % 1008,8 hPa 0,0 l/m 7,0 km/h (2 Bft) O-SO 115 5 min 0,000 mm 2,6 UV-I 546 W/m 16,2 C 21,0 C 12,9 km/h (3 Bft)
10.08.2014 10:35 20,4 C 76 % 1008,7 hPa 0,0 l/m 3,9 km/h (1 Bft) O-NO 66 0 min 0,000 mm 2,0 UV-I 228 W/m 16,0 C 20,4 C 8,0 km/h (2 Bft)
10.08.2014 10:40 20,6 C 76 % 1008,5 hPa 0,0 l/m 7,6 km/h (2 Bft) SO 140 5 min 0,000 mm 3,1 UV-I 604 W/m 16,2 C 20,1 C 17,7 km/h (3 Bft)
10.08.2014 10:45 21,1 C 75 % 1008,5 hPa 0,0 l/m 4,0 km/h (1 Bft) NO 53 5 min 0,000 mm 2,8 UV-I 584 W/m 16,5 C 21,1 C 11,3 km/h (2 Bft)
10.08.2014 10:50 21,1 C 74 % 1008,5 hPa 0,0 l/m 6,0 km/h (2 Bft) O 87 5 min 0,000 mm 2,6 UV-I 419 W/m 16,3 C 21,1 C 11,3 km/h (2 Bft)
10.08.2014 10:55 20,6 C 76 % 1008,4 hPa 0,0 l/m 8,0 km/h (2 Bft) O-NO 73 5 min 0,000 mm 2,7 UV-I 381 W/m 16,2 C 20,0 C 17,7 km/h (3 Bft)
10.08.2014 11:00 21,5 C 75 % 1008,3 hPa 0,0 l/m 4,4 km/h (1 Bft) O 91 0 min 0,000 mm 2,3 UV-I 330 W/m 16,9 C 21,5 C 12,9 km/h (3 Bft)
10.08.2014 11:05 20,9 C 75 % 1008,4 hPa 0,0 l/m 4,5 km/h (1 Bft) O-SO 119 0 min 0,254 mm 2,3 UV-I 319 W/m 16,3 C 20,9 C 11,3 km/h (2 Bft)
10.08.2014 11:10 21,1 C 76 % 1008,6 hPa 0,0 l/m 5,6 km/h (1 Bft) S-SO 163 0 min 0,000 mm 2,3 UV-I 303 W/m 16,7 C 21,1 C 9,7 km/h (2 Bft)
10.08.2014 11:15 20,7 C 77 % 1008,4 hPa 0,0 l/m 5,9 km/h (2 Bft) O-SO 105 0 min 0,000 mm 2,5 UV-I 352 W/m 16,5 C 20,7 C 12,9 km/h (3 Bft)
10.08.2014 11:20 20,3 C 78 % 1008,5 hPa 0,0 l/m 6,9 km/h (2 Bft) O 88 0 min 0,000 mm 2,1 UV-I 305 W/m 16,3 C 20,1 C 12,9 km/h (3 Bft)
10.08.2014 11:25 20,3 C 79 % 1008,6 hPa 0,0 l/m 5,0 km/h (1 Bft) O-NO 76 0 min 0,000 mm 2,0 UV-I 245 W/m 16,5 C 20,3 C 12,9 km/h (3 Bft)
10.08.2014 11:30 20,6 C 79 % 1008,6 hPa 0,0 l/m 5,3 km/h (1 Bft) O-NO 76 0 min 0,000 mm 2,2 UV-I 312 W/m 16,8 C 20,6 C 11,3 km/h (2 Bft)
10.08.2014 11:35 21,0 C 78 % 1008,4 hPa 0,0 l/m 7,3 km/h (2 Bft) O 93 0 min 0,000 mm 2,4 UV-I 305 W/m 17,0 C 20,7 C 12,9 km/h (3 Bft)
10.08.2014 11:40 21,1 C 77 % 1008,3 hPa 0,0 l/m 5,4 km/h (1 Bft) O-SO 117 0 min 0,000 mm 2,0 UV-I 235 W/m 16,9 C 21,1 C 11,3 km/h (2 Bft)
10.08.2014 11:45 20,8 C 78 % 1008,3 hPa 0,0 l/m 6,6 km/h (2 Bft) O 95 5 min 0,000 mm 3,0 UV-I 413 W/m 16,8 C 20,7 C 12,9 km/h (3 Bft)
10.08.2014 11:50 20,6 C 79 % 1008,2 hPa 0,0 l/m 6,8 km/h (2 Bft) O 95 0 min 0,000 mm 2,3 UV-I 288 W/m 16,8 C 20,4 C 16,1 km/h (3 Bft)
10.08.2014 11:55 20,4 C 80 % 1008,1 hPa 0,0 l/m 10,8 km/h (2 Bft) O 83 0 min 0,000 mm 2,9 UV-I 403 W/m 16,8 C 18,8 C 17,7 km/h (3 Bft)
10.08.2014 12:00 20,4 C 80 % 1008,1 hPa 0,0 l/m 11,1 km/h (2 Bft) O-NO 63 5 min 0,000 mm 3,0 UV-I 443 W/m 16,8 C 18,7 C 20,9 km/h (4 Bft)
10.08.2014 12:05 20,4 C 80 % 1008,1 hPa 0,0 l/m 8,8 km/h (2 Bft) O-NO 59 0 min 0,229 mm 2,4 UV-I 303 W/m 16,8 C 19,5 C 14,5 km/h (3 Bft)
10.08.2014 12:10 20,4 C 79 % 1008,0 hPa 0,0 l/m 10,7 km/h (2 Bft) O 95 0 min 0,000 mm 2,3 UV-I 290 W/m 16,6 C 18,9 C 17,7 km/h (3 Bft)
10.08.2014 12:15 20,3 C 80 % 1008,0 hPa 0,0 l/m 6,5 km/h (2 Bft) SO 128 0 min 0,000 mm 2,0 UV-I 239 W/m 16,7 C 20,3 C 12,9 km/h (3 Bft)
10.08.2014 12:20 20,3 C 80 % 1007,8 hPa 0,0 l/m 5,6 km/h (1 Bft) O-NO 59 0 min 0,000 mm 1,8 UV-I 222 W/m 16,7 C 20,3 C 11,3 km/h (2 Bft)
10.08.2014 12:25 20,6 C 79 % 1008,0 hPa 0,0 l/m 4,7 km/h (1 Bft) SO 140 0 min 0,000 mm 2,3 UV-I 305 W/m 16,8 C 20,6 C 12,9 km/h (3 Bft)
10.08.2014 12:30 20,6 C 80 % 1008,1 hPa 0,0 l/m 4,5 km/h (1 Bft) SO 133 0 min 0,000 mm 2,6 UV-I 335 W/m 17,0 C 20,6 C 12,9 km/h (3 Bft)
10.08.2014 12:35 21,0 C 80 % 1008,0 hPa 0,0 l/m 5,1 km/h (1 Bft) O-NO 69 0 min 0,000 mm 3,2 UV-I 404 W/m 17,4 C 21,0 C 14,5 km/h (3 Bft)
10.08.2014 12:40 21,9 C 78 % 1008,0 hPa 0,0 l/m 5,7 km/h (1 Bft) O 83 5 min 0,000 mm 4,7 UV-I 815 W/m 17,9 C 21,9 C 12,9 km/h (3 Bft)
10.08.2014 12:45 22,4 C 76 % 1007,9 hPa 0,0 l/m 6,9 km/h (2 Bft) NO 53 0 min 0,000 mm 3,7 UV-I 355 W/m 18,0 C 22,2 C 12,9 km/h (3 Bft)
10.08.2014 12:50 23,1 C 73 % 1007,8 hPa 0,0 l/m 3,0 km/h (1 Bft) O 84 5 min 0,000 mm 4,7 UV-I 642 W/m 18,0 C 23,1 C 11,3 km/h (2 Bft)
10.08.2014 12:55 22,7 C 74 % 1007,7 hPa 0,0 l/m 7,1 km/h (2 Bft) SO 130 5 min 0,000 mm 4,6 UV-I 807 W/m 17,8 C 22,5 C 17,7 km/h (3 Bft)
10.08.2014 13:00 22,4 C 74 % 1007,7 hPa 0,0 l/m 7,7 km/h (2 Bft) O 91 0 min 0,000 mm 2,6 UV-I 305 W/m 17,5 C 22,0 C 12,9 km/h (3 Bft)
10.08.2014 13:05 22,6 C 75 % 1007,5 hPa 0,0 l/m 6,3 km/h (2 Bft) O-SO 103 0 min 0,279 mm 3,6 UV-I 346 W/m 17,9 C 22,6 C 16,1 km/h (3 Bft)
10.08.2014 13:10 22,6 C 73 % 1007,4 hPa 0,0 l/m 7,2 km/h (2 Bft) S-SO 151 5 min 0,000 mm 4,0 UV-I 499 W/m 17,5 C 22,3 C 14,5 km/h (3 Bft)
10.08.2014 13:15 23,0 C 73 % 1007,5 hPa 0,0 l/m 4,5 km/h (1 Bft) SO 146 5 min 0,000 mm 3,7 UV-I 525 W/m 17,9 C 23,0 C 9,7 km/h (2 Bft)
10.08.2014 13:20 22,8 C 72 % 1007,4 hPa 0,0 l/m 5,0 km/h (1 Bft) O-SO 108 0 min 0,000 mm 3,0 UV-I 369 W/m 17,5 C 22,8 C 16,1 km/h (3 Bft)
10.08.2014 13:25 22,6 C 74 % 1007,5 hPa 0,0 l/m 4,6 km/h (1 Bft) SO 136 0 min 0,000 mm 3,0 UV-I 374 W/m 17,7 C 22,6 C 12,9 km/h (3 Bft)
10.08.2014 13:30 23,1 C 71 % 1007,2 hPa 0,0 l/m 2,0 km/h (1 Bft) W-SW 254 0 min 0,000 mm 2,8 UV-I 332 W/m 17,5 C 23,1 C 8,0 km/h (2 Bft)
10.08.2014 13:35 23,6 C 69 % 1007,2 hPa 0,0 l/m 3,5 km/h (1 Bft) W 259 0 min 0,000 mm 3,0 UV-I 380 W/m 17,6 C 23,6 C 11,3 km/h (2 Bft)
10.08.2014 13:40 23,7 C 69 % 1007,3 hPa 0,0 l/m 3,6 km/h (1 Bft) SW 236 0 min 0,000 mm 2,4 UV-I 305 W/m 17,7 C 23,7 C 8,0 km/h (2 Bft)
10.08.2014 13:45 23,5 C 68 % 1007,3 hPa 0,0 l/m 8,6 km/h (2 Bft) SO 146 5 min 0,000 mm 4,0 UV-I 455 W/m 17,2 C 22,9 C 17,7 km/h (3 Bft)
10.08.2014 13:50 23,2 C 68 % 1007,1 hPa 0,0 l/m 9,4 km/h (2 Bft) SO 141 5 min 0,000 mm 4,1 UV-I 452 W/m 17,0 C 22,3 C 20,9 km/h (4 Bft)
10.08.2014 13:55 23,5 C 68 % 1007,0 hPa 0,0 l/m 7,4 km/h (2 Bft) S-SO 155 5 min 0,000 mm 4,4 UV-I 517 W/m 17,2 C 23,2 C 16,1 km/h (3 Bft)
10.08.2014 14:00 23,6 C 69 % 1007,0 hPa 0,0 l/m 8,7 km/h (2 Bft) SW 232 5 min 0,000 mm 4,3 UV-I 542 W/m 17,6 C 22,9 C 17,7 km/h (3 Bft)
10.08.2014 14:05 23,9 C 69 % 1006,9 hPa 0,0 l/m 8,2 km/h (2 Bft) S-SO 163 5 min 0,305 mm 4,8 UV-I 614 W/m 17,9 C 23,4 C 16,1 km/h (3 Bft)
10.08.2014 14:10 23,8 C 66 % 1007,0 hPa 0,0 l/m 10,0 km/h (2 Bft) SO 138 0 min 0,000 mm 3,2 UV-I 404 W/m 17,1 C 22,8 C 19,3 km/h (3 Bft)
10.08.2014 14:15 23,8 C 67 % 1007,0 hPa 0,0 l/m 7,4 km/h (2 Bft) S-SW 211 0 min 0,000 mm 2,7 UV-I 285 W/m 17,3 C 23,5 C 14,5 km/h (3 Bft)
10.08.2014 14:20 23,4 C 67 % 1007,0 hPa 0,0 l/m 11,3 km/h (2 Bft) O 86 0 min 0,000 mm 1,9 UV-I 189 W/m 16,9 C 22,1 C 22,5 km/h (4 Bft)
10.08.2014 14:25 22,9 C 70 % 1007,0 hPa 0,0 l/m 9,1 km/h (2 Bft) S-SW 210 0 min 0,000 mm 1,0 UV-I 106 W/m 17,1 C 22,1 C 16,1 km/h (3 Bft)
10.08.2014 14:30 22,9 C 71 % 1007,1 hPa 0,0 l/m 4,4 km/h (1 Bft) SW 234 0 min 0,000 mm 0,7 UV-I 74 W/m 17,4 C 22,9 C 17,7 km/h (3 Bft)
10.08.2014 14:35 22,7 C 74 % 1007,3 hPa 0,0 l/m 8,1 km/h (2 Bft) W 265 0 min 0,000 mm 0,0 UV-I 32 W/m 17,8 C 22,2 C 20,9 km/h (4 Bft)
10.08.2014 14:40 22,3 C 78 % 1007,1 hPa 0,4 l/m 6,8 km/h (2 Bft) W-SW 239 0 min 0,000 mm 0,4 UV-I 63 W/m 18,3 C 22,2 C 19,3 km/h (3 Bft)
10.08.2014 14:45 21,8 C 80 % 1007,1 hPa 0,2 l/m 1,8 km/h (1 Bft) S-SW 208 0 min 0,000 mm 0,8 UV-I 90 W/m 18,2 C 21,8 C 8,0 km/h (2 Bft)
10.08.2014 14:50 21,5 C 80 % 1006,9 hPa 0,0 l/m 3,2 km/h (1 Bft) S-SO 166 0 min 0,000 mm 0,9 UV-I 104 W/m 17,9 C 21,5 C 8,0 km/h (2 Bft)
10.08.2014 14:55 21,2 C 83 % 1006,9 hPa 0,0 l/m 2,4 km/h (1 Bft) S-SW 207 0 min 0,000 mm 0,8 UV-I 92 W/m 18,2 C 21,2 C 8,0 km/h (2 Bft)
10.08.2014 15:00 21,1 C 83 % 1006,5 hPa 0,0 l/m 0,0 km/h (0 Bft) S-SW 199 0 min 0,000 mm 0,7 UV-I 77 W/m 18,1 C 21,1 C 1,6 km/h (1 Bft)
10.08.2014 15:05 21,1 C 85 % 1006,5 hPa 0,0 l/m 0,0 km/h (0 Bft) S-SW 199 0 min 0,127 mm 0,2 UV-I 52 W/m 18,5 C 21,1 C 0,0 km/h (0 Bft)
10.08.2014 15:10 20,9 C 84 % 1006,8 hPa 0,2 l/m 1,9 km/h (1 Bft) S 179 0 min 0,000 mm 0,0 UV-I 40 W/m 18,1 C 20,9 C 6,4 km/h (2 Bft)
10.08.2014 15:15 20,7 C 86 % 1006,6 hPa 0,4 l/m 1,3 km/h (1 Bft) O-NO 78 0 min 0,000 mm 0,2 UV-I 54 W/m 18,3 C 20,7 C 4,8 km/h (1 Bft)
10.08.2014 15:20 20,6 C 87 % 1006,6 hPa 0,0 l/m 0,6 km/h (0 Bft) O-SO 120 0 min 0,000 mm 1,0 UV-I 117 W/m 18,4 C 20,6 C 3,2 km/h (1 Bft)
10.08.2014 15:25 20,4 C 88 % 1006,6 hPa 0,0 l/m 0,3 km/h (0 Bft) SO 142 0 min 0,000 mm 1,1 UV-I 130 W/m 18,3 C 20,4 C 3,2 km/h (1 Bft)
10.08.2014 15:30 20,4 C 87 % 1006,4 hPa 0,0 l/m 0,6 km/h (0 Bft) SO 142 0 min 0,000 mm 0,6 UV-I 72 W/m 18,2 C 20,4 C 3,2 km/h (1 Bft)
10.08.2014 15:35 20,3 C 87 % 1006,6 hPa 0,0 l/m 1,8 km/h (1 Bft) SO 134 0 min 0,000 mm 0,7 UV-I 80 W/m 18,1 C 20,3 C 6,4 km/h (2 Bft)
10.08.2014 15:40 20,3 C 88 % 1006,7 hPa 0,0 l/m 2,7 km/h (1 Bft) S-SO 155 0 min 0,000 mm 0,8 UV-I 95 W/m 18,2 C 20,3 C 8,0 km/h (2 Bft)
10.08.2014 15:45 20,3 C 87 % 1007,0 hPa 0,0 l/m 5,3 km/h (1 Bft) O-SO 114 0 min 0,000 mm 0,4 UV-I 62 W/m 18,1 C 20,3 C 14,5 km/h (3 Bft)
10.08.2014 15:50 20,3 C 88 % 1006,9 hPa 0,4 l/m 0,8 km/h (0 Bft) S 180 0 min 0,000 mm 0,0 UV-I 29 W/m 18,2 C 20,3 C 4,8 km/h (1 Bft)
10.08.2014 15:55 20,3 C 88 % 1006,9 hPa 0,2 l/m 3,3 km/h (1 Bft) W-SW 254 0 min 0,000 mm 0,0 UV-I 20 W/m 18,2 C 20,3 C 12,9 km/h (3 Bft)
10.08.2014 16:00 20,2 C 89 % 1006,8 hPa 0,6 l/m 1,6 km/h (1 Bft) O-NO 74 0 min 0,000 mm 0,0 UV-I 24 W/m 18,3 C 20,2 C 6,4 km/h (2 Bft)
10.08.2014 16:05 20,1 C 89 % 1006,8 hPa 0,2 l/m 5,4 km/h (1 Bft) O 101 0 min 0,051 mm 0,0 UV-I 33 W/m 18,2 C 20,1 C 12,9 km/h (3 Bft)
10.08.2014 16:10 19,9 C 89 % 1006,7 hPa 0,4 l/m 4,7 km/h (1 Bft) S-SO 159 0 min 0,000 mm 0,0 UV-I 30 W/m 18,0 C 19,9 C 11,3 km/h (2 Bft)
10.08.2014 16:15 19,8 C 90 % 1006,6 hPa 0,4 l/m 2,9 km/h (1 Bft) S 173 0 min 0,000 mm 0,0 UV-I 32 W/m 18,1 C 19,8 C 8,0 km/h (2 Bft)
10.08.2014 16:20 19,8 C 91 % 1006,5 hPa 0,4 l/m 1,2 km/h (1 Bft) O-SO 112 0 min 0,000 mm 0,0 UV-I 37 W/m 18,3 C 19,8 C 4,8 km/h (1 Bft)
10.08.2014 16:25 19,7 C 91 % 1006,3 hPa 0,2 l/m 3,5 km/h (1 Bft) O 89 0 min 0,000 mm 0,0 UV-I 33 W/m 18,2 C 19,7 C 8,0 km/h (2 Bft)
10.08.2014 16:30 19,7 C 91 % 1006,2 hPa 0,2 l/m 2,1 km/h (1 Bft) O-SO 112 0 min 0,000 mm 0,0 UV-I 33 W/m 18,2 C 19,7 C 6,4 km/h (2 Bft)
10.08.2014 16:35 19,6 C 92 % 1006,2 hPa 0,4 l/m 2,8 km/h (1 Bft) SO 145 0 min 0,000 mm 0,0 UV-I 38 W/m 18,3 C 19,6 C 9,7 km/h (2 Bft)
10.08.2014 16:40 19,6 C 92 % 1006,1 hPa 0,2 l/m 3,6 km/h (1 Bft) O 98 0 min 0,000 mm 0,0 UV-I 52 W/m 18,3 C 19,6 C 9,7 km/h (2 Bft)
10.08.2014 16:45 19,6 C 92 % 1006,3 hPa 0,0 l/m 6,6 km/h (2 Bft) SO 138 0 min 0,000 mm 0,6 UV-I 84 W/m 18,3 C 19,5 C 12,9 km/h (3 Bft)
10.08.2014 16:50 19,6 C 92 % 1006,0 hPa 0,0 l/m 5,6 km/h (1 Bft) S-SO 161 0 min 0,000 mm 0,7 UV-I 98 W/m 18,3 C 19,6 C 12,9 km/h (3 Bft)
10.08.2014 16:55 19,6 C 92 % 1005,9 hPa 0,0 l/m 5,9 km/h (2 Bft) O-SO 119 0 min 0,000 mm 0,6 UV-I 91 W/m 18,3 C 19,6 C 14,5 km/h (3 Bft)
10.08.2014 17:00 19,6 C 92 % 1005,9 hPa 0,2 l/m 4,0 km/h (1 Bft) O-SO 109 0 min 0,000 mm 0,6 UV-I 95 W/m 18,3 C 19,6 C 11,3 km/h (2 Bft)
10.08.2014 17:05 19,6 C 92 % 1005,8 hPa 0,0 l/m 2,7 km/h (1 Bft) O-SO 116 0 min 0,025 mm 0,7 UV-I 103 W/m 18,3 C 19,6 C 8,0 km/h (2 Bft)
10.08.2014 17:10 19,7 C 92 % 1005,7 hPa 0,0 l/m 2,9 km/h (1 Bft) S 173 0 min 0,000 mm 0,7 UV-I 123 W/m 18,4 C 19,7 C 8,0 km/h (2 Bft)
10.08.2014 17:15 19,8 C 92 % 1005,8 hPa 0,0 l/m 1,7 km/h (1 Bft) O-NO 68 0 min 0,000 mm 0,9 UV-I 146 W/m 18,5 C 19,8 C 8,0 km/h (2 Bft)
10.08.2014 17:20 19,9 C 92 % 1005,8 hPa 0,0 l/m 3,0 km/h (1 Bft) O-SO 107 0 min 0,000 mm 0,9 UV-I 148 W/m 18,6 C 19,9 C 14,5 km/h (3 Bft)
10.08.2014 17:25 20,0 C 92 % 1005,7 hPa 0,0 l/m 2,1 km/h (1 Bft) S 189 0 min 0,000 mm 1,0 UV-I 187 W/m 18,7 C 20,0 C 6,4 km/h (2 Bft)
10.08.2014 17:30 20,4 C 92 % 1005,5 hPa 0,0 l/m 1,6 km/h (1 Bft) O 94 0 min 0,000 mm 1,3 UV-I 274 W/m 19,1 C 20,4 C 4,8 km/h (1 Bft)
10.08.2014 17:35 20,3 C 89 % 1005,5 hPa 0,0 l/m 5,3 km/h (1 Bft) S-SO 147 0 min 0,000 mm 1,2 UV-I 255 W/m 18,4 C 20,3 C 14,5 km/h (3 Bft)
10.08.2014 17:40 20,4 C 90 % 1005,2 hPa 0,0 l/m 4,2 km/h (1 Bft) O-SO 108 0 min 0,000 mm 1,0 UV-I 177 W/m 18,7 C 20,4 C 11,3 km/h (2 Bft)
10.08.2014 17:45 20,4 C 89 % 1005,1 hPa 0,0 l/m 2,6 km/h (1 Bft) S-SO 159 0 min 0,000 mm 0,9 UV-I 134 W/m 18,5 C 20,4 C 8,0 km/h (2 Bft)
10.08.2014 17:50 20,3 C 89 % 1005,1 hPa 0,0 l/m 1,3 km/h (1 Bft) S-SW 211 0 min 0,000 mm 0,6 UV-I 102 W/m 18,4 C 20,3 C 8,0 km/h (2 Bft)
10.08.2014 17:55 20,4 C 90 % 1005,1 hPa 0,0 l/m 0,9 km/h (0 Bft) W-SW 250 0 min 0,000 mm 0,6 UV-I 104 W/m 18,7 C 20,4 C 6,4 km/h (2 Bft)
10.08.2014 18:00 20,4 C 89 % 1004,9 hPa 0,0 l/m 3,0 km/h (1 Bft) SO 142 0 min 0,000 mm 0,4 UV-I 91 W/m 18,5 C 20,4 C 11,3 km/h (2 Bft)
10.08.2014 18:05 20,3 C 89 % 1004,9 hPa 0,0 l/m 3,4 km/h (1 Bft) SO 140 0 min 0,102 mm 0,4 UV-I 98 W/m 18,4 C 20,3 C 11,3 km/h (2 Bft)
10.08.2014 18:10 20,2 C 89 % 1005,1 hPa 0,0 l/m 2,5 km/h (1 Bft) S 172 0 min 0,000 mm 0,2 UV-I 81 W/m 18,3 C 20,2 C 8,0 km/h (2 Bft)
10.08.2014 18:15 20,2 C 89 % 1005,2 hPa 0,0 l/m 5,0 km/h (1 Bft) SW 234 0 min 0,000 mm 0,0 UV-I 58 W/m 18,3 C 20,2 C 11,3 km/h (2 Bft)
10.08.2014 18:20 20,1 C 89 % 1005,2 hPa 0,0 l/m 4,0 km/h (1 Bft) SW 224 0 min 0,000 mm 0,0 UV-I 47 W/m 18,2 C 20,1 C 11,3 km/h (2 Bft)
10.08.2014 18:25 20,0 C 89 % 1005,2 hPa 0,0 l/m 5,0 km/h (1 Bft) S-SW 200 0 min 0,000 mm 0,0 UV-I 33 W/m 18,1 C 20,0 C 12,9 km/h (3 Bft)
10.08.2014 18:30 20,0 C 89 % 1005,2 hPa 0,0 l/m 2,6 km/h (1 Bft) S-SW 202 0 min 0,000 mm 0,0 UV-I 17 W/m 18,1 C 20,0 C 8,0 km/h (2 Bft)
10.08.2014 18:35 19,9 C 89 % 1005,0 hPa 0,0 l/m 1,3 km/h (1 Bft) W-SW 244 0 min 0,000 mm 0,0 UV-I 12 W/m 18,0 C 19,9 C 8,0 km/h (2 Bft)
10.08.2014 18:40 19,9 C 89 % 1005,0 hPa 0,0 l/m 1,7 km/h (1 Bft) SW 225 0 min 0,000 mm 0,0 UV-I 9 W/m 18,0 C 19,9 C 8,0 km/h (2 Bft)
10.08.2014 18:45 19,8 C 90 % 1005,2 hPa 0,2 l/m 1,7 km/h (1 Bft) W-SW 248 0 min 0,000 mm 0,0 UV-I 7 W/m 18,1 C 19,8 C 8,0 km/h (2 Bft)
10.08.2014 18:50 19,7 C 90 % 1005,1 hPa 0,4 l/m 0,1 km/h (0 Bft) W-SW 248 0 min 0,000 mm 0,0 UV-I 5 W/m 18,0 C 19,7 C 3,2 km/h (1 Bft)
10.08.2014 18:55 19,7 C 91 % 1005,1 hPa 0,2 l/m 0,0 km/h (0 Bft) W-SW 248 0 min 0,000 mm 0,0 UV-I 2 W/m 18,2 C 19,7 C 1,6 km/h (1 Bft)
10.08.2014 19:00 19,6 C 91 % 1004,8 hPa 0,4 l/m 0,0 km/h (0 Bft) W-SW 248 0 min 0,000 mm 0,0 UV-I 8 W/m 18,1 C 19,6 C 1,6 km/h (1 Bft)
10.08.2014 19:05 19,6 C 92 % 1004,7 hPa 0,4 l/m 0,0 km/h (0 Bft) W-SW 248 0 min 0,025 mm 0,0 UV-I 7 W/m 18,3 C 19,6 C 0,0 km/h (0 Bft)
10.08.2014 19:10 19,6 C 92 % 1004,6 hPa 0,2 l/m 0,3 km/h (0 Bft) W-SW 248 0 min 0,000 mm 0,0 UV-I 5 W/m 18,3 C 19,6 C 4,8 km/h (1 Bft)
10.08.2014 19:15 19,4 C 92 % 1004,6 hPa 0,4 l/m 0,2 km/h (0 Bft) S-SO 158 0 min 0,000 mm 0,0 UV-I 4 W/m 18,1 C 19,4 C 1,6 km/h (1 Bft)
10.08.2014 19:20 19,4 C 93 % 1004,7 hPa 0,2 l/m 0,1 km/h (0 Bft) W-SW 248 0 min 0,000 mm 0,0 UV-I 9 W/m 18,2 C 19,4 C 1,6 km/h (1 Bft)
10.08.2014 19:25 19,3 C 93 % 1004,9 hPa 0,0 l/m 1,3 km/h (1 Bft) S 190 0 min 0,000 mm 0,0 UV-I 18 W/m 18,1 C 19,3 C 4,8 km/h (1 Bft)
10.08.2014 19:30 19,2 C 93 % 1005,3 hPa 0,0 l/m 4,3 km/h (1 Bft) NW 309 0 min 0,000 mm 0,0 UV-I 6 W/m 18,0 C 19,2 C 12,9 km/h (3 Bft)
10.08.2014 19:35 19,2 C 93 % 1005,1 hPa 0,0 l/m 2,9 km/h (1 Bft) W-SW 248 0 min 0,000 mm 0,0 UV-I 2 W/m 18,0 C 19,2 C 9,7 km/h (2 Bft)
10.08.2014 19:40 19,1 C 93 % 1004,9 hPa 0,0 l/m 0,1 km/h (0 Bft) W-SW 245 0 min 0,000 mm 0,0 UV-I 13 W/m 17,9 C 19,1 C 1,6 km/h (1 Bft)
10.08.2014 19:45 19,1 C 94 % 1004,9 hPa 0,0 l/m 2,5 km/h (1 Bft) O-SO 123 0 min 0,000 mm 0,0 UV-I 18 W/m 18,1 C 19,1 C 8,0 km/h (2 Bft)
10.08.2014 19:50 19,1 C 93 % 1004,7 hPa 0,0 l/m 2,5 km/h (1 Bft) O-SO 109 0 min 0,000 mm 0,0 UV-I 16 W/m 17,9 C 19,1 C 6,4 km/h (2 Bft)
10.08.2014 19:55 19,1 C 93 % 1004,7 hPa 0,0 l/m 5,7 km/h (1 Bft) O-SO 115 0 min 0,000 mm 0,0 UV-I 13 W/m 17,9 C 19,1 C 12,9 km/h (3 Bft)
10.08.2014 20:00 19,1 C 93 % 1004,9 hPa 0,0 l/m 4,1 km/h (1 Bft) O-SO 105 0 min 0,000 mm 0,0 UV-I 10 W/m 17,9 C 19,1 C 9,7 km/h (2 Bft)
10.08.2014 20:05 19,1 C 92 % 1004,8 hPa 0,0 l/m 4,8 km/h (1 Bft) O 93 0 min 0,000 mm 0,0 UV-I 7 W/m 17,8 C 19,1 C 11,3 km/h (2 Bft)
10.08.2014 20:10 19,2 C 92 % 1004,9 hPa 0,0 l/m 4,5 km/h (1 Bft) O 90 0 min 0,000 mm 0,0 UV-I 8 W/m 17,9 C 19,2 C 9,7 km/h (2 Bft)
10.08.2014 20:15 19,2 C 92 % 1005,0 hPa 0,0 l/m 4,9 km/h (1 Bft) SO 125 0 min 0,000 mm 0,0 UV-I 7 W/m 17,9 C 19,2 C 14,5 km/h (3 Bft)
10.08.2014 20:20 19,2 C 92 % 1004,9 hPa 0,0 l/m 4,3 km/h (1 Bft) O 101 0 min 0,000 mm 0,0 UV-I 1 W/m 17,9 C 19,2 C 11,3 km/h (2 Bft)
10.08.2014 20:25 19,3 C 92 % 1005,1 hPa 0,0 l/m 5,4 km/h (1 Bft) O-SO 113 0 min 0,000 mm 0,0 UV-I 0 W/m 18,0 C 19,3 C 12,9 km/h (3 Bft)
10.08.2014 20:30 19,3 C 92 % 1005,2 hPa 0,0 l/m 5,0 km/h (1 Bft) SO 140 0 min 0,000 mm 0,0 UV-I 0 W/m 18,0 C 19,3 C 9,7 km/h (2 Bft)
10.08.2014 20:35 19,3 C 92 % 1005,1 hPa 0,0 l/m 2,7 km/h (1 Bft) O-SO 108 0 min 0,000 mm 0,0 UV-I 0 W/m 18,0 C 19,3 C 8,0 km/h (2 Bft)
10.08.2014 20:40 19,3 C 92 % 1004,8 hPa 0,0 l/m 4,6 km/h (1 Bft) O 99 0 min 0,000 mm 0,0 UV-I 0 W/m 18,0 C 19,3 C 14,5 km/h (3 Bft)
10.08.2014 20:45 19,3 C 92 % 1004,8 hPa 0,0 l/m 3,6 km/h (1 Bft) SO 134 0 min 0,000 mm 0,0 UV-I 0 W/m 18,0 C 19,3 C 11,3 km/h (2 Bft)
10.08.2014 20:50 19,3 C 92 % 1004,7 hPa 0,0 l/m 4,3 km/h (1 Bft) S-SO 150 0 min 0,000 mm 0,0 UV-I 0 W/m 18,0 C 19,3 C 11,3 km/h (2 Bft)
10.08.2014 20:55 19,3 C 92 % 1004,8 hPa 0,0 l/m 2,3 km/h (1 Bft) S 178 0 min 0,000 mm 0,0 UV-I 0 W/m 18,0 C 19,3 C 6,4 km/h (2 Bft)
10.08.2014 21:00 19,3 C 92 % 1004,9 hPa 0,0 l/m 3,0 km/h (1 Bft) N-NO 23 0 min 0,000 mm 0,0 UV-I 0 W/m 18,0 C 19,3 C 8,0 km/h (2 Bft)
10.08.2014 21:05 19,3 C 92 % 1004,9 hPa 0,0 l/m 1,7 km/h (1 Bft) S 185 0 min 0,000 mm 0,0 UV-I 0 W/m 18,0 C 19,3 C 8,0 km/h (2 Bft)
10.08.2014 21:10 19,3 C 92 % 1004,9 hPa 0,0 l/m 2,4 km/h (1 Bft) SO 135 0 min 0,000 mm 0,0 UV-I 0 W/m 18,0 C 19,3 C 6,4 km/h (2 Bft)
10.08.2014 21:15 19,3 C 92 % 1004,9 hPa 0,0 l/m 2,1 km/h (1 Bft) S-SW 197 0 min 0,000 mm 0,0 UV-I 0 W/m 18,0 C 19,3 C 11,3 km/h (2 Bft)
10.08.2014 21:20 19,3 C 92 % 1004,9 hPa 0,0 l/m 1,1 km/h (1 Bft) S-SW 195 0 min 0,000 mm 0,0 UV-I 0 W/m 18,0 C 19,3 C 4,8 km/h (1 Bft)
10.08.2014 21:25 19,3 C 92 % 1004,9 hPa 0,0 l/m 0,9 km/h (0 Bft) SO 144 0 min 0,000 mm 0,0 UV-I 0 W/m 18,0 C 19,3 C 6,4 km/h (2 Bft)
10.08.2014 21:30 19,3 C 92 % 1004,9 hPa 0,0 l/m 0,8 km/h (0 Bft) S 182 0 min 0,000 mm 0,0 UV-I 0 W/m 18,0 C 19,3 C 4,8 km/h (1 Bft)
10.08.2014 21:35 19,2 C 93 % 1005,0 hPa 0,0 l/m 2,3 km/h (1 Bft) W-SW 246 0 min 0,000 mm 0,0 UV-I 0 W/m 18,0 C 19,2 C 8,0 km/h (2 Bft)
10.08.2014 21:40 19,2 C 93 % 1005,0 hPa 0,0 l/m 5,9 km/h (2 Bft) W-SW 242 0 min 0,000 mm 0,0 UV-I 0 W/m 18,0 C 19,2 C 11,3 km/h (2 Bft)
10.08.2014 21:45 19,2 C 93 % 1004,9 hPa 0,0 l/m 4,5 km/h (1 Bft) W-SW 251 0 min 0,000 mm 0,0 UV-I 0 W/m 18,0 C 19,2 C 9,7 km/h (2 Bft)
10.08.2014 21:50 19,2 C 93 % 1004,8 hPa 0,0 l/m 3,8 km/h (1 Bft) W-SW 254 0 min 0,000 mm 0,0 UV-I 0 W/m 18,0 C 19,2 C 11,3 km/h (2 Bft)
10.08.2014 21:55 19,2 C 93 % 1005,0 hPa 0,2 l/m 4,9 km/h (1 Bft) S-SW 207 0 min 0,000 mm 0,0 UV-I 0 W/m 18,0 C 19,2 C 11,3 km/h (2 Bft)
10.08.2014 22:00 19,2 C 93 % 1005,1 hPa 0,2 l/m 6,5 km/h (2 Bft) S-SW 199 0 min 0,000 mm 0,0 UV-I 0 W/m 18,0 C 19,2 C 14,5 km/h (3 Bft)
10.08.2014 22:05 19,2 C 92 % 1005,2 hPa 0,2 l/m 10,6 km/h (2 Bft) S-SW 196 0 min 0,000 mm 0,0 UV-I 0 W/m 17,9 C 17,6 C 20,9 km/h (4 Bft)
10.08.2014 22:10 19,3 C 92 % 1004,9 hPa 0,0 l/m 7,2 km/h (2 Bft) SW 221 0 min 0,000 mm 0,0 UV-I 0 W/m 18,0 C 19,0 C 20,9 km/h (4 Bft)
10.08.2014 22:15 19,3 C 91 % 1004,9 hPa 0,0 l/m 7,9 km/h (2 Bft) S 181 0 min 0,000 mm 0,0 UV-I 0 W/m 17,8 C 18,7 C 16,1 km/h (3 Bft)
10.08.2014 22:20 19,3 C 91 % 1005,2 hPa 0,0 l/m 7,6 km/h (2 Bft) S-SW 193 0 min 0,000 mm 0,0 UV-I 0 W/m 17,8 C 18,8 C 17,7 km/h (3 Bft)
10.08.2014 22:25 19,2 C 91 % 1005,4 hPa 0,0 l/m 6,6 km/h (2 Bft) S-SW 196 0 min 0,000 mm 0,0 UV-I 0 W/m 17,7 C 19,1 C 12,9 km/h (3 Bft)
10.08.2014 22:30 19,2 C 91 % 1005,1 hPa 0,0 l/m 6,4 km/h (2 Bft) SW 227 0 min 0,000 mm 0,0 UV-I 0 W/m 17,7 C 19,2 C 14,5 km/h (3 Bft)
10.08.2014 22:35 19,1 C 90 % 1005,3 hPa 0,0 l/m 8,5 km/h (2 Bft) S 186 0 min 0,000 mm 0,0 UV-I 0 W/m 17,4 C 18,2 C 17,7 km/h (3 Bft)
10.08.2014 22:40 19,0 C 90 % 1005,0 hPa 0,0 l/m 6,4 km/h (2 Bft) SW 225 0 min 0,000 mm 0,0 UV-I 0 W/m 17,3 C 19,0 C 16,1 km/h (3 Bft)
10.08.2014 22:45 18,8 C 89 % 1005,5 hPa 0,0 l/m 6,4 km/h (2 Bft) W-SW 247 0 min 0,000 mm 0,0 UV-I 0 W/m 16,9 C 18,8 C 17,7 km/h (3 Bft)
10.08.2014 22:50 18,8 C 89 % 1005,4 hPa 0,0 l/m 6,4 km/h (2 Bft) W-SW 247 0 min 0,000 mm 0,0 UV-I 0 W/m 16,9 C 18,8 C 16,1 km/h (3 Bft)
10.08.2014 22:55 18,7 C 89 % 1005,7 hPa 0,0 l/m 8,0 km/h (2 Bft) SW 225 0 min 0,000 mm 0,0 UV-I 0 W/m 16,8 C 18,0 C 19,3 km/h (3 Bft)
10.08.2014 23:00 18,6 C 89 % 1005,6 hPa 0,0 l/m 8,0 km/h (2 Bft) W-SW 247 0 min 0,025 mm 0,0 UV-I 0 W/m 16,7 C 17,9 C 17,7 km/h (3 Bft)
10.08.2014 23:05 18,4 C 90 % 1005,5 hPa 0,0 l/m 6,4 km/h (2 Bft) SW 225 0 min 0,000 mm 0,0 UV-I 0 W/m 16,7 C 18,4 C 14,5 km/h (3 Bft)
10.08.2014 23:10 18,3 C 90 % 1005,7 hPa 0,0 l/m 6,4 km/h (2 Bft) W-SW 247 0 min 0,000 mm 0,0 UV-I 0 W/m 16,6 C 18,3 C 11,3 km/h (2 Bft)
10.08.2014 23:15 18,2 C 90 % 1005,7 hPa 0,0 l/m 8,0 km/h (2 Bft) SW 225 0 min 0,000 mm 0,0 UV-I 0 W/m 16,5 C 17,5 C 17,7 km/h (3 Bft)
10.08.2014 23:20 18,2 C 90 % 1005,7 hPa 0,0 l/m 6,1 km/h (2 Bft) W 269 0 min 0,001 mm 0,0 UV-I 0 W/m 16,5 C 18,2 C 17,7 km/h (3 Bft)
10.08.2014 23:25 18,1 C 91 % 1005,8 hPa 0,0 l/m 6,7 km/h (2 Bft) W-SW 250 0 min 0,000 mm 0,0 UV-I 0 W/m 16,6 C 18,0 C 17,7 km/h (3 Bft)
10.08.2014 23:30 18,0 C 91 % 1005,7 hPa 0,0 l/m 4,9 km/h (1 Bft) W 274 0 min 0,000 mm 0,0 UV-I 0 W/m 16,5 C 18,0 C 11,3 km/h (2 Bft)
10.08.2014 23:35 17,9 C 91 % 1005,9 hPa 0,0 l/m 3,3 km/h (1 Bft) W 273 0 min 0,000 mm 0,0 UV-I 0 W/m 16,4 C 17,9 C 8,0 km/h (2 Bft)
10.08.2014 23:40 17,8 C 91 % 1005,9 hPa 0,0 l/m 3,8 km/h (1 Bft) W-NW 288 0 min 0,000 mm 0,0 UV-I 0 W/m 16,3 C 17,8 C 9,7 km/h (2 Bft)
10.08.2014 23:45 17,7 C 92 % 1005,9 hPa 0,0 l/m 2,7 km/h (1 Bft) W-NW 301 0 min 0,000 mm 0,0 UV-I 0 W/m 16,4 C 17,7 C 8,0 km/h (2 Bft)
10.08.2014 23:50 17,6 C 92 % 1006,0 hPa 0,0 l/m 2,1 km/h (1 Bft) W 281 0 min 0,000 mm 0,0 UV-I 0 W/m 16,3 C 17,6 C 8,0 km/h (2 Bft)
10.08.2014 23:55 17,4 C 92 % 1006,1 hPa 0,0 l/m 3,7 km/h (1 Bft) W-NW 288 0 min 0,000 mm 0,0 UV-I 0 W/m 16,1 C 17,4 C 12,9 km/h (3 Bft)
_ Min-Zeit 02:00 14:10 19:10 - 00:00 - - - - - - 02:00 02:00 00:05
Minimum _ 12,9 C 66 % 1004,6 hPa - 0,0 km/h (0 Bft) - - - - - - 11,5 C 12,9 C 0,0 km/h (0 Bft)
_ Max-Zeit 14:10 07:50 00:00 16:00 14:20 - - 08:00 14:05 14:05 12:40 17:30 13:40 14:20
Maximum _ 24,2 C 95 % 1013,2 hPa 0,6 l/m 11,3 km/h
O (2 Bft)
- - 5 min 0,305 mm 4,8 UV-I 815 W/m 19,1 C 23,7 C 22,5 km/h
O (4 Bft)
Durchschnitt _ 17,9 C 88 % 1008,3 hPa #8,2 l/m 2,9 km/h (1 Bft) O - #3:10 h #1,829 mm 1,8 UV-I 197 W/m 15,7 C 17,8 C 7,3 km/h (2 Bft)